sensor_id;sensor_type;location;lat;lon;timestamp;P1;durP1;ratioP1;P2;durP2;ratioP2
20287;SDS011;10303;51.960;8.372;2023-04-01T00:01:00;0.50;;;0.40;;
20287;SDS011;10303;51.960;8.372;2023-04-01T00:03:29;0.50;;;0.50;;
20287;SDS011;10303;51.960;8.372;2023-04-01T00:05:56;1.93;;;0.60;;
20287;SDS011;10303;51.960;8.372;2023-04-01T00:08:24;1.23;;;0.60;;
20287;SDS011;10303;51.960;8.372;2023-04-01T00:10:51;3.50;;;0.60;;
20287;SDS011;10303;51.960;8.372;2023-04-01T00:13:18;0.53;;;0.33;;
20287;SDS011;10303;51.960;8.372;2023-04-01T00:15:45;0.87;;;0.50;;
20287;SDS011;10303;51.960;8.372;2023-04-01T00:18:11;0.53;;;0.40;;
20287;SDS011;10303;51.960;8.372;2023-04-01T00:20:38;0.60;;;0.33;;
20287;SDS011;10303;51.960;8.372;2023-04-01T00:23:09;0.73;;;0.57;;
20287;SDS011;10303;51.960;8.372;2023-04-01T00:25:35;0.63;;;0.40;;
20287;SDS011;10303;51.960;8.372;2023-04-01T00:28:01;0.30;;;0.30;;
20287;SDS011;10303;51.960;8.372;2023-04-01T00:30:27;1.83;;;0.43;;
20287;SDS011;10303;51.960;8.372;2023-04-01T00:32:53;0.30;;;0.30;;
20287;SDS011;10303;51.960;8.372;2023-04-01T00:35:19;0.67;;;0.40;;
20287;SDS011;10303;51.960;8.372;2023-04-01T00:37:45;0.50;;;0.40;;
20287;SDS011;10303;51.960;8.372;2023-04-01T00:40:23;0.40;;;0.33;;
20287;SDS011;10303;51.960;8.372;2023-04-01T00:43:09;0.23;;;0.23;;
20287;SDS011;10303;51.960;8.372;2023-04-01T00:45:40;0.87;;;0.30;;
20287;SDS011;10303;51.960;8.372;2023-04-01T00:48:13;0.30;;;0.30;;
20287;SDS011;10303;51.960;8.372;2023-04-01T00:50:45;0.30;;;0.30;;
20287;SDS011;10303;51.960;8.372;2023-04-01T00:53:20;1.50;;;0.60;;
20287;SDS011;10303;51.960;8.372;2023-04-01T00:55:54;0.40;;;0.40;;
20287;SDS011;10303;51.960;8.372;2023-04-01T00:58:27;0.20;;;0.20;;
20287;SDS011;10303;51.960;8.372;2023-04-01T01:00:58;0.20;;;0.20;;
20287;SDS011;10303;51.960;8.372;2023-04-01T01:03:26;0.53;;;0.20;;
20287;SDS011;10303;51.960;8.372;2023-04-01T01:11:27;1.00;;;0.20;;
20287;SDS011;10303;51.960;8.372;2023-04-01T01:17:22;0.20;;;0.20;;
20287;SDS011;10303;51.960;8.372;2023-04-01T01:31:07;0.30;;;0.20;;
20287;SDS011;10303;51.960;8.372;2023-04-01T01:36:18;1.03;;;0.50;;
20287;SDS011;10303;51.960;8.372;2023-04-01T01:38:47;1.17;;;0.30;;
20287;SDS011;10303;51.960;8.372;2023-04-01T01:41:16;1.10;;;0.30;;
20287;SDS011;10303;51.960;8.372;2023-04-01T01:43:46;0.80;;;0.33;;
20287;SDS011;10303;51.960;8.372;2023-04-01T01:46:21;0.20;;;0.20;;
20287;SDS011;10303;51.960;8.372;2023-04-01T01:49:04;0.30;;;0.30;;
20287;SDS011;10303;51.960;8.372;2023-04-01T01:51:35;0.37;;;0.37;;
20287;SDS011;10303;51.960;8.372;2023-04-01T01:54:03;0.20;;;0.20;;
20287;SDS011;10303;51.960;8.372;2023-04-01T01:56:30;0.37;;;0.37;;
20287;SDS011;10303;51.960;8.372;2023-04-01T01:59:00;0.20;;;0.20;;
20287;SDS011;10303;51.960;8.372;2023-04-01T02:01:35;1.27;;;0.20;;
20287;SDS011;10303;51.960;8.372;2023-04-01T02:04:11;0.20;;;0.20;;
20287;SDS011;10303;51.960;8.372;2023-04-01T02:06:42;0.30;;;0.30;;
20287;SDS011;10303;51.960;8.372;2023-04-01T02:09:19;1.13;;;0.30;;
20287;SDS011;10303;51.960;8.372;2023-04-01T02:11:47;0.30;;;0.23;;
20287;SDS011;10303;51.960;8.372;2023-04-01T02:14:50;1.10;;;0.30;;
20287;SDS011;10303;51.960;8.372;2023-04-01T02:17:27;0.20;;;0.20;;
20287;SDS011;10303;51.960;8.372;2023-04-01T02:19:58;0.20;;;0.20;;
20287;SDS011;10303;51.960;8.372;2023-04-01T02:22:31;1.00;;;0.20;;
20287;SDS011;10303;51.960;8.372;2023-04-01T02:25:04;0.33;;;0.23;;
20287;SDS011;10303;51.960;8.372;2023-04-01T02:27:34;1.40;;;0.20;;
20287;SDS011;10303;51.960;8.372;2023-04-01T02:30:01;2.83;;;0.50;;
20287;SDS011;10303;51.960;8.372;2023-04-01T02:32:29;0.30;;;0.30;;
20287;SDS011;10303;51.960;8.372;2023-04-01T02:34:58;1.73;;;0.30;;
20287;SDS011;10303;51.960;8.372;2023-04-01T02:37:28;0.20;;;0.20;;
20287;SDS011;10303;51.960;8.372;2023-04-01T02:39:54;0.40;;;0.40;;
20287;SDS011;10303;51.960;8.372;2023-04-01T02:42:26;0.20;;;0.20;;
20287;SDS011;10303;51.960;8.372;2023-04-01T02:44:52;2.13;;;0.47;;
20287;SDS011;10303;51.960;8.372;2023-04-01T02:47:18;0.10;;;0.10;;
20287;SDS011;10303;51.960;8.372;2023-04-01T02:49:44;0.20;;;0.17;;
20287;SDS011;10303;51.960;8.372;2023-04-01T02:52:10;0.23;;;0.23;;
20287;SDS011;10303;51.960;8.372;2023-04-01T02:54:36;0.30;;;0.30;;
20287;SDS011;10303;51.960;8.372;2023-04-01T02:57:02;2.63;;;0.30;;
20287;SDS011;10303;51.960;8.372;2023-04-01T02:59:28;0.50;;;0.20;;
20287;SDS011;10303;51.960;8.372;2023-04-01T03:01:53;0.10;;;0.10;;
20287;SDS011;10303;51.960;8.372;2023-04-01T03:04:19;0.20;;;0.20;;
20287;SDS011;10303;51.960;8.372;2023-04-01T03:06:46;0.27;;;0.27;;
20287;SDS011;10303;51.960;8.372;2023-04-01T03:09:12;0.63;;;0.20;;
20287;SDS011;10303;51.960;8.372;2023-04-01T03:11:39;0.40;;;0.20;;
20287;SDS011;10303;51.960;8.372;2023-04-01T03:14:06;0.20;;;0.20;;
20287;SDS011;10303;51.960;8.372;2023-04-01T03:16:32;0.10;;;0.10;;
20287;SDS011;10303;51.960;8.372;2023-04-01T03:18:58;0.17;;;0.17;;
20287;SDS011;10303;51.960;8.372;2023-04-01T03:21:27;0.57;;;0.13;;
20287;SDS011;10303;51.960;8.372;2023-04-01T03:23:53;0.10;;;0.10;;
20287;SDS011;10303;51.960;8.372;2023-04-01T03:26:19;0.20;;;0.20;;
20287;SDS011;10303;51.960;8.372;2023-04-01T03:28:46;0.10;;;0.10;;
20287;SDS011;10303;51.960;8.372;2023-04-01T03:31:12;0.83;;;0.27;;
20287;SDS011;10303;51.960;8.372;2023-04-01T03:33:46;0.20;;;0.20;;
20287;SDS011;10303;51.960;8.372;2023-04-01T03:36:12;0.43;;;0.20;;
20287;SDS011;10303;51.960;8.372;2023-04-01T03:38:39;1.23;;;0.40;;
20287;SDS011;10303;51.960;8.372;2023-04-01T03:41:06;0.30;;;0.20;;
20287;SDS011;10303;51.960;8.372;2023-04-01T03:43:36;0.27;;;0.23;;
20287;SDS011;10303;51.960;8.372;2023-04-01T03:46:03;0.10;;;0.10;;
20287;SDS011;10303;51.960;8.372;2023-04-01T03:48:29;0.20;;;0.20;;
20287;SDS011;10303;51.960;8.372;2023-04-01T03:50:55;0.13;;;0.10;;
20287;SDS011;10303;51.960;8.372;2023-04-01T03:53:22;1.27;;;0.10;;
20287;SDS011;10303;51.960;8.372;2023-04-01T03:55:48;0.20;;;0.20;;
20287;SDS011;10303;51.960;8.372;2023-04-01T03:58:16;0.20;;;0.20;;
20287;SDS011;10303;51.960;8.372;2023-04-01T04:00:43;0.30;;;0.30;;
20287;SDS011;10303;51.960;8.372;2023-04-01T04:03:09;0.20;;;0.20;;
20287;SDS011;10303;51.960;8.372;2023-04-01T04:05:35;0.27;;;0.27;;
20287;SDS011;10303;51.960;8.372;2023-04-01T04:08:01;0.20;;;0.20;;
20287;SDS011;10303;51.960;8.372;2023-04-01T04:10:28;0.20;;;0.20;;
20287;SDS011;10303;51.960;8.372;2023-04-01T04:12:54;0.20;;;0.20;;
20287;SDS011;10303;51.960;8.372;2023-04-01T04:15:22;0.10;;;0.10;;
20287;SDS011;10303;51.960;8.372;2023-04-01T04:17:48;0.17;;;0.17;;
20287;SDS011;10303;51.960;8.372;2023-04-01T04:20:14;0.10;;;0.10;;
20287;SDS011;10303;51.960;8.372;2023-04-01T04:22:40;0.20;;;0.20;;
20287;SDS011;10303;51.960;8.372;2023-04-01T04:25:07;0.57;;;0.20;;
20287;SDS011;10303;51.960;8.372;2023-04-01T04:27:36;0.20;;;0.20;;
20287;SDS011;10303;51.960;8.372;2023-04-01T04:30:06;0.17;;;0.17;;
20287;SDS011;10303;51.960;8.372;2023-04-01T04:32:35;0.10;;;0.10;;
20287;SDS011;10303;51.960;8.372;2023-04-01T04:35:01;0.40;;;0.17;;
20287;SDS011;10303;51.960;8.372;2023-04-01T04:37:28;0.20;;;0.20;;
20287;SDS011;10303;51.960;8.372;2023-04-01T04:39:54;0.20;;;0.20;;
20287;SDS011;10303;51.960;8.372;2023-04-01T04:42:20;0.20;;;0.20;;
20287;SDS011;10303;51.960;8.372;2023-04-01T04:44:47;0.13;;;0.13;;
20287;SDS011;10303;51.960;8.372;2023-04-01T04:47:16;0.30;;;0.30;;
20287;SDS011;10303;51.960;8.372;2023-04-01T04:49:42;0.10;;;0.10;;
20287;SDS011;10303;51.960;8.372;2023-04-01T04:52:08;0.50;;;0.20;;
20287;SDS011;10303;51.960;8.372;2023-04-01T04:54:35;0.10;;;0.10;;
20287;SDS011;10303;51.960;8.372;2023-04-01T04:57:02;0.47;;;0.20;;
20287;SDS011;10303;51.960;8.372;2023-04-01T04:59:33;0.33;;;0.27;;
20287;SDS011;10303;51.960;8.372;2023-04-01T05:02:07;0.20;;;0.20;;
20287;SDS011;10303;51.960;8.372;2023-04-01T05:04:36;1.43;;;0.20;;
20287;SDS011;10303;51.960;8.372;2023-04-01T05:07:04;0.17;;;0.17;;
20287;SDS011;10303;51.960;8.372;2023-04-01T05:09:30;0.17;;;0.17;;
20287;SDS011;10303;51.960;8.372;2023-04-01T05:11:57;0.20;;;0.20;;
20287;SDS011;10303;51.960;8.372;2023-04-01T05:14:25;1.87;;;0.20;;
20287;SDS011;10303;51.960;8.372;2023-04-01T05:16:58;0.10;;;0.10;;
20287;SDS011;10303;51.960;8.372;2023-04-01T05:19:23;0.20;;;0.20;;
20287;SDS011;10303;51.960;8.372;2023-04-01T05:21:50;0.30;;;0.20;;
20287;SDS011;10303;51.960;8.372;2023-04-01T05:24:15;0.33;;;0.30;;
20287;SDS011;10303;51.960;8.372;2023-04-01T05:26:42;0.10;;;0.10;;
20287;SDS011;10303;51.960;8.372;2023-04-01T05:29:07;0.53;;;0.20;;
20287;SDS011;10303;51.960;8.372;2023-04-01T05:31:34;0.10;;;0.10;;
20287;SDS011;10303;51.960;8.372;2023-04-01T05:34:01;0.20;;;0.20;;
20287;SDS011;10303;51.960;8.372;2023-04-01T05:36:27;0.20;;;0.20;;
20287;SDS011;10303;51.960;8.372;2023-04-01T05:38:57;0.17;;;0.17;;
20287;SDS011;10303;51.960;8.372;2023-04-01T05:41:25;0.30;;;0.30;;
20287;SDS011;10303;51.960;8.372;2023-04-01T05:43:51;0.67;;;0.33;;
20287;SDS011;10303;51.960;8.372;2023-04-01T05:46:40;0.17;;;0.17;;
20287;SDS011;10303;51.960;8.372;2023-04-01T05:49:17;0.20;;;0.20;;
20287;SDS011;10303;51.960;8.372;2023-04-01T05:51:43;0.20;;;0.20;;
20287;SDS011;10303;51.960;8.372;2023-04-01T05:54:09;0.20;;;0.20;;
20287;SDS011;10303;51.960;8.372;2023-04-01T05:56:36;0.20;;;0.20;;
20287;SDS011;10303;51.960;8.372;2023-04-01T05:59:02;0.40;;;0.20;;
20287;SDS011;10303;51.960;8.372;2023-04-01T06:01:28;0.20;;;0.20;;
20287;SDS011;10303;51.960;8.372;2023-04-01T06:03:55;0.10;;;0.10;;
20287;SDS011;10303;51.960;8.372;2023-04-01T06:06:26;0.30;;;0.30;;
20287;SDS011;10303;51.960;8.372;2023-04-01T06:09:18;0.20;;;0.20;;
20287;SDS011;10303;51.960;8.372;2023-04-01T06:17:26;1.40;;;0.20;;
20287;SDS011;10303;51.960;8.372;2023-04-01T06:20:27;0.33;;;0.33;;
20287;SDS011;10303;51.960;8.372;2023-04-01T06:23:19;0.50;;;0.20;;
20287;SDS011;10303;51.960;8.372;2023-04-01T06:26:24;0.33;;;0.20;;
20287;SDS011;10303;51.960;8.372;2023-04-01T06:31:47;0.17;;;0.17;;
20287;SDS011;10303;51.960;8.372;2023-04-01T06:34:45;0.10;;;0.10;;
20287;SDS011;10303;51.960;8.372;2023-04-01T06:37:54;0.20;;;0.10;;
20287;SDS011;10303;51.960;8.372;2023-04-01T06:40:45;0.10;;;0.10;;
20287;SDS011;10303;51.960;8.372;2023-04-01T06:50:47;0.20;;;0.20;;
20287;SDS011;10303;51.960;8.372;2023-04-01T06:53:44;1.20;;;0.60;;
20287;SDS011;10303;51.960;8.372;2023-04-01T06:57:19;0.67;;;0.40;;
20287;SDS011;10303;51.960;8.372;2023-04-01T07:00:02;0.63;;;0.33;;
20287;SDS011;10303;51.960;8.372;2023-04-01T07:02:39;0.30;;;0.30;;
20287;SDS011;10303;51.960;8.372;2023-04-01T07:05:19;0.20;;;0.20;;
20287;SDS011;10303;51.960;8.372;2023-04-01T07:07:48;0.50;;;0.27;;
20287;SDS011;10303;51.960;8.372;2023-04-01T07:16:27;0.50;;;0.40;;
20287;SDS011;10303;51.960;8.372;2023-04-01T07:19:22;0.43;;;0.37;;
20287;SDS011;10303;51.960;8.372;2023-04-01T07:22:14;0.23;;;0.23;;
20287;SDS011;10303;51.960;8.372;2023-04-01T07:25:22;0.30;;;0.30;;
20287;SDS011;10303;51.960;8.372;2023-04-01T07:28:30;0.33;;;0.33;;
20287;SDS011;10303;51.960;8.372;2023-04-01T07:34:19;0.73;;;0.40;;
20287;SDS011;10303;51.960;8.372;2023-04-01T07:37:18;0.30;;;0.30;;
20287;SDS011;10303;51.960;8.372;2023-04-01T07:40:49;0.30;;;0.30;;
20287;SDS011;10303;51.960;8.372;2023-04-01T07:43:31;0.67;;;0.50;;
20287;SDS011;10303;51.960;8.372;2023-04-01T07:46:32;0.47;;;0.47;;
20287;SDS011;10303;51.960;8.372;2023-04-01T07:49:22;0.83;;;0.63;;
20287;SDS011;10303;51.960;8.372;2023-04-01T07:52:14;0.47;;;0.47;;
20287;SDS011;10303;51.960;8.372;2023-04-01T08:07:17;0.30;;;0.30;;
20287;SDS011;10303;51.960;8.372;2023-04-01T08:19:54;0.20;;;0.20;;
20287;SDS011;10303;51.960;8.372;2023-04-01T08:25:17;1.23;;;0.50;;
20287;SDS011;10303;51.960;8.372;2023-04-01T08:27:55;0.33;;;0.33;;
20287;SDS011;10303;51.960;8.372;2023-04-01T08:30:42;0.37;;;0.37;;
20287;SDS011;10303;51.960;8.372;2023-04-01T08:33:28;0.43;;;0.30;;
20287;SDS011;10303;51.960;8.372;2023-04-01T08:36:17;0.30;;;0.30;;
20287;SDS011;10303;51.960;8.372;2023-04-01T08:39:13;0.30;;;0.30;;
20287;SDS011;10303;51.960;8.372;2023-04-01T08:45:03;0.30;;;0.30;;
20287;SDS011;10303;51.960;8.372;2023-04-01T08:50:46;0.30;;;0.30;;
20287;SDS011;10303;51.960;8.372;2023-04-01T08:53:40;0.30;;;0.30;;
20287;SDS011;10303;51.960;8.372;2023-04-01T09:02:54;0.30;;;0.30;;
20287;SDS011;10303;51.960;8.372;2023-04-01T09:12:14;0.27;;;0.27;;
20287;SDS011;10303;51.960;8.372;2023-04-01T09:25:58;0.40;;;0.27;;
20287;SDS011;10303;51.960;8.372;2023-04-01T09:38:19;0.47;;;0.47;;
20287;SDS011;10303;51.960;8.372;2023-04-01T09:41:03;2.33;;;0.30;;
20287;SDS011;10303;51.960;8.372;2023-04-01T09:44:14;0.40;;;0.40;;
20287;SDS011;10303;51.960;8.372;2023-04-01T09:50:24;0.30;;;0.30;;
20287;SDS011;10303;51.960;8.372;2023-04-01T09:53:18;0.37;;;0.37;;
20287;SDS011;10303;51.960;8.372;2023-04-01T09:59:19;0.40;;;0.40;;
20287;SDS011;10303;51.960;8.372;2023-04-01T10:06:02;0.30;;;0.30;;
20287;SDS011;10303;51.960;8.372;2023-04-01T10:09:29;0.30;;;0.30;;
20287;SDS011;10303;51.960;8.372;2023-04-01T10:13:03;0.20;;;0.20;;
20287;SDS011;10303;51.960;8.372;2023-04-01T10:19:58;2.80;;;0.40;;
20287;SDS011;10303;51.960;8.372;2023-04-01T10:22:29;0.40;;;0.40;;
20287;SDS011;10303;51.960;8.372;2023-04-01T10:37:12;0.20;;;0.20;;
20287;SDS011;10303;51.960;8.372;2023-04-01T10:49:33;0.87;;;0.30;;
20287;SDS011;10303;51.960;8.372;2023-04-01T10:56:06;0.50;;;0.50;;
20287;SDS011;10303;51.960;8.372;2023-04-01T10:59:28;0.40;;;0.40;;
20287;SDS011;10303;51.960;8.372;2023-04-01T11:13:30;0.40;;;0.40;;
20287;SDS011;10303;51.960;8.372;2023-04-01T11:21:56;2.67;;;0.40;;
20287;SDS011;10303;51.960;8.372;2023-04-01T11:25:17;0.30;;;0.30;;
20287;SDS011;10303;51.960;8.372;2023-04-01T11:31:37;0.30;;;0.30;;
20287;SDS011;10303;51.960;8.372;2023-04-01T11:41:13;0.40;;;0.40;;
20287;SDS011;10303;51.960;8.372;2023-04-01T11:44:22;1.00;;;0.40;;
20287;SDS011;10303;51.960;8.372;2023-04-01T11:50:35;0.40;;;0.40;;
20287;SDS011;10303;51.960;8.372;2023-04-01T11:59:32;0.50;;;0.50;;
20287;SDS011;10303;51.960;8.372;2023-04-01T12:05:36;0.50;;;0.40;;
20287;SDS011;10303;51.960;8.372;2023-04-01T12:17:26;0.30;;;0.30;;
20287;SDS011;10303;51.960;8.372;2023-04-01T12:25:46;0.40;;;0.40;;
20287;SDS011;10303;51.960;8.372;2023-04-01T12:28:41;0.70;;;0.70;;
20287;SDS011;10303;51.960;8.372;2023-04-01T12:31:32;0.87;;;0.70;;
20287;SDS011;10303;51.960;8.372;2023-04-01T12:39:51;1.37;;;1.27;;
20287;SDS011;10303;51.960;8.372;2023-04-01T12:48:23;1.50;;;1.07;;
20287;SDS011;10303;51.960;8.372;2023-04-01T13:20:49;0.90;;;0.87;;
20287;SDS011;10303;51.960;8.372;2023-04-01T13:32:29;0.67;;;0.67;;
20287;SDS011;10303;51.960;8.372;2023-04-01T13:52:57;1.60;;;1.50;;
20287;SDS011;10303;51.960;8.372;2023-04-01T14:02:40;1.43;;;0.90;;
20287;SDS011;10303;51.960;8.372;2023-04-01T14:05:35;0.77;;;0.77;;
20287;SDS011;10303;51.960;8.372;2023-04-01T14:11:36;0.90;;;0.90;;
20287;SDS011;10303;51.960;8.372;2023-04-01T14:25:41;0.80;;;0.80;;
20287;SDS011;10303;51.960;8.372;2023-04-01T14:31:41;0.70;;;0.70;;
20287;SDS011;10303;51.960;8.372;2023-04-01T14:37:48;0.97;;;0.97;;
20287;SDS011;10303;51.960;8.372;2023-04-01T14:49:47;1.03;;;0.70;;
20287;SDS011;10303;51.960;8.372;2023-04-01T14:54:59;0.50;;;0.50;;
20287;SDS011;10303;51.960;8.372;2023-04-01T14:57:29;0.63;;;0.63;;
20287;SDS011;10303;51.960;8.372;2023-04-01T15:09:05;0.50;;;0.50;;
20287;SDS011;10303;51.960;8.372;2023-04-01T15:29:39;2.13;;;1.07;;
20287;SDS011;10303;51.960;8.372;2023-04-01T15:38:41;0.50;;;0.50;;
20287;SDS011;10303;51.960;8.372;2023-04-01T15:50:12;1.17;;;0.97;;
20287;SDS011;10303;51.960;8.372;2023-04-01T15:58:59;2.67;;;0.97;;
20287;SDS011;10303;51.960;8.372;2023-04-01T16:02:07;1.47;;;1.00;;
20287;SDS011;10303;51.960;8.372;2023-04-01T16:04:58;1.13;;;1.00;;
20287;SDS011;10303;51.960;8.372;2023-04-01T16:20:14;2.77;;;0.63;;
20287;SDS011;10303;51.960;8.372;2023-04-01T16:23:13;0.60;;;0.60;;
20287;SDS011;10303;51.960;8.372;2023-04-01T16:26:13;0.50;;;0.50;;
20287;SDS011;10303;51.960;8.372;2023-04-01T16:31:48;0.60;;;0.60;;
20287;SDS011;10303;51.960;8.372;2023-04-01T16:34:34;0.57;;;0.57;;
20287;SDS011;10303;51.960;8.372;2023-04-01T16:37:41;0.70;;;0.70;;
20287;SDS011;10303;51.960;8.372;2023-04-01T16:40:29;0.60;;;0.60;;
20287;SDS011;10303;51.960;8.372;2023-04-01T16:45:40;0.40;;;0.40;;
20287;SDS011;10303;51.960;8.372;2023-04-01T16:56:47;0.60;;;0.60;;
20287;SDS011;10303;51.960;8.372;2023-04-01T16:59:35;0.77;;;0.50;;
20287;SDS011;10303;51.960;8.372;2023-04-01T17:02:13;0.53;;;0.37;;
20287;SDS011;10303;51.960;8.372;2023-04-01T17:05:02;0.50;;;0.50;;
20287;SDS011;10303;51.960;8.372;2023-04-01T17:22:16;0.43;;;0.43;;
20287;SDS011;10303;51.960;8.372;2023-04-01T17:25:28;0.97;;;0.50;;
20287;SDS011;10303;51.960;8.372;2023-04-01T17:28:33;0.30;;;0.30;;
20287;SDS011;10303;51.960;8.372;2023-04-01T17:37:23;1.03;;;0.30;;
20287;SDS011;10303;51.960;8.372;2023-04-01T17:46:23;0.40;;;0.40;;
20287;SDS011;10303;51.960;8.372;2023-04-01T17:49:05;0.40;;;0.40;;
20287;SDS011;10303;51.960;8.372;2023-04-01T18:07:30;0.40;;;0.40;;
20287;SDS011;10303;51.960;8.372;2023-04-01T18:10:17;0.50;;;0.50;;
20287;SDS011;10303;51.960;8.372;2023-04-01T18:19:10;0.70;;;0.63;;
20287;SDS011;10303;51.960;8.372;2023-04-01T18:22:21;1.47;;;0.90;;
20287;SDS011;10303;51.960;8.372;2023-04-01T18:28:11;0.60;;;0.60;;
20287;SDS011;10303;51.960;8.372;2023-04-01T18:31:18;0.57;;;0.57;;
20287;SDS011;10303;51.960;8.372;2023-04-01T18:39:42;0.50;;;0.50;;
20287;SDS011;10303;51.960;8.372;2023-04-01T18:52:03;0.70;;;0.70;;
20287;SDS011;10303;51.960;8.372;2023-04-01T18:54:42;0.67;;;0.67;;
20287;SDS011;10303;51.960;8.372;2023-04-01T19:00:25;0.50;;;0.50;;
20287;SDS011;10303;51.960;8.372;2023-04-01T19:03:01;0.73;;;0.73;;
20287;SDS011;10303;51.960;8.372;2023-04-01T19:05:38;0.87;;;0.80;;
20287;SDS011;10303;51.960;8.372;2023-04-01T19:08:22;0.93;;;0.60;;
20287;SDS011;10303;51.960;8.372;2023-04-01T19:11:05;0.70;;;0.70;;
20287;SDS011;10303;51.960;8.372;2023-04-01T19:28:20;0.50;;;0.50;;
20287;SDS011;10303;51.960;8.372;2023-04-01T19:30:51;0.47;;;0.47;;
20287;SDS011;10303;51.960;8.372;2023-04-01T19:51:13;0.37;;;0.37;;
20287;SDS011;10303;51.960;8.372;2023-04-01T19:56:44;0.47;;;0.47;;
20287;SDS011;10303;51.960;8.372;2023-04-01T20:04:44;0.60;;;0.60;;
20287;SDS011;10303;51.960;8.372;2023-04-01T20:10:08;0.67;;;0.67;;
20287;SDS011;10303;51.960;8.372;2023-04-01T20:15:47;0.80;;;0.80;;
20287;SDS011;10303;51.960;8.372;2023-04-01T20:18:36;0.80;;;0.80;;
20287;SDS011;10303;51.960;8.372;2023-04-01T20:21:19;0.90;;;0.90;;
20287;SDS011;10303;51.960;8.372;2023-04-01T20:24:00;0.80;;;0.80;;
20287;SDS011;10303;51.960;8.372;2023-04-01T20:26:50;0.80;;;0.80;;
20287;SDS011;10303;51.960;8.372;2023-04-01T20:29:55;0.70;;;0.70;;
20287;SDS011;10303;51.960;8.372;2023-04-01T20:41:40;0.77;;;0.77;;
20287;SDS011;10303;51.960;8.372;2023-04-01T20:44:25;0.60;;;0.60;;
20287;SDS011;10303;51.960;8.372;2023-04-01T20:47:44;0.80;;;0.80;;
20287;SDS011;10303;51.960;8.372;2023-04-01T20:53:39;0.90;;;0.90;;
20287;SDS011;10303;51.960;8.372;2023-04-01T21:05:43;1.87;;;1.13;;
20287;SDS011;10303;51.960;8.372;2023-04-01T21:11:51;0.90;;;0.90;;
20287;SDS011;10303;51.960;8.372;2023-04-01T21:20:54;1.37;;;1.27;;
20287;SDS011;10303;51.960;8.372;2023-04-01T21:32:43;0.87;;;0.87;;
20287;SDS011;10303;51.960;8.372;2023-04-01T21:35:30;1.20;;;1.10;;
20287;SDS011;10303;51.960;8.372;2023-04-01T21:38:17;1.10;;;1.10;;
20287;SDS011;10303;51.960;8.372;2023-04-01T21:44:05;1.20;;;1.10;;
20287;SDS011;10303;51.960;8.372;2023-04-01T22:07:21;0.70;;;0.70;;
20287;SDS011;10303;51.960;8.372;2023-04-01T22:10:09;1.00;;;1.00;;
20287;SDS011;10303;51.960;8.372;2023-04-01T22:15:50;0.93;;;0.93;;
20287;SDS011;10303;51.960;8.372;2023-04-01T22:21:45;1.00;;;1.00;;
20287;SDS011;10303;51.960;8.372;2023-04-01T22:24:37;1.13;;;0.87;;
20287;SDS011;10303;51.960;8.372;2023-04-01T22:36:28;1.00;;;0.90;;
20287;SDS011;10303;51.960;8.372;2023-04-01T22:42:47;0.60;;;0.60;;
20287;SDS011;10303;51.960;8.372;2023-04-01T22:45:27;0.90;;;0.90;;
20287;SDS011;10303;51.960;8.372;2023-04-01T22:56:51;0.50;;;0.50;;
20287;SDS011;10303;51.960;8.372;2023-04-01T22:59:37;0.60;;;0.60;;
20287;SDS011;10303;51.960;8.372;2023-04-01T23:02:27;0.60;;;0.60;;
20287;SDS011;10303;51.960;8.372;2023-04-01T23:04:59;0.60;;;0.60;;
20287;SDS011;10303;51.960;8.372;2023-04-01T23:10:03;0.83;;;0.70;;
20287;SDS011;10303;51.960;8.372;2023-04-01T23:12:40;0.43;;;0.43;;
20287;SDS011;10303;51.960;8.372;2023-04-01T23:15:10;0.70;;;0.70;;
20287;SDS011;10303;51.960;8.372;2023-04-01T23:17:42;0.63;;;0.60;;
20287;SDS011;10303;51.960;8.372;2023-04-01T23:28:54;0.57;;;0.57;;
20287;SDS011;10303;51.960;8.372;2023-04-01T23:31:40;0.63;;;0.63;;
20287;SDS011;10303;51.960;8.372;2023-04-01T23:36:47;0.60;;;0.60;;
20287;SDS011;10303;51.960;8.372;2023-04-01T23:40:04;0.60;;;0.60;;
20287;SDS011;10303;51.960;8.372;2023-04-01T23:42:13;1.43;;;0.73;;
20287;SDS011;10303;51.960;8.372;2023-04-01T23:44:53;0.77;;;0.67;;
20287;SDS011;10303;51.960;8.372;2023-04-01T23:47:24;0.80;;;0.80;;
20287;SDS011;10303;51.960;8.372;2023-04-01T23:49:58;0.80;;;0.80;;
20287;SDS011;10303;51.960;8.372;2023-04-01T23:52:36;0.73;;;0.70;;
20287;SDS011;10303;51.960;8.372;2023-04-01T23:55:12;0.87;;;0.80;;
